createdAt,value
2023-02-02T00:01:37.018Z,99572.13
2023-02-02T00:04:05.630Z,99580.06
2023-02-02T00:06:34.336Z,99584.66
2023-02-02T00:09:04.663Z,99583.25
2023-02-02T00:11:32.752Z,99587.84
2023-02-02T00:14:01.329Z,99600.88
2023-02-02T00:16:38.658Z,99594.84
2023-02-02T00:19:08.342Z,99591.91
2023-02-02T00:21:37.982Z,99587.03
2023-02-02T00:24:08.981Z,99595.72
2023-02-02T00:26:37.392Z,99597.44
2023-02-02T00:29:06.674Z,99599.38
2023-02-02T00:31:34.917Z,99592.69
2023-02-02T00:34:02.984Z,99601.88
2023-02-02T00:36:31.019Z,99601.41
2023-02-02T00:38:59.291Z,99599.97
2023-02-02T00:41:28.707Z,99598.41
2023-02-02T00:44:13.536Z,99593.47
2023-02-02T00:46:42.747Z,99591.22
2023-02-02T00:49:13.720Z,99589.59
2023-02-02T00:51:42.215Z,99591.16
2023-02-02T00:54:10.545Z,99582.91
2023-02-02T00:56:40.162Z,99588.53
2023-02-02T00:59:08.365Z,99582.53
2023-02-02T01:01:36.508Z,99588.50
2023-02-02T01:04:04.692Z,99585.22
2023-02-02T01:06:32.914Z,99591.38
2023-02-02T01:09:01.107Z,99600.66
2023-02-02T01:11:31.051Z,99601.56
2023-02-02T01:14:00.524Z,99593.53
2023-02-02T01:16:30.098Z,99597.66
2023-02-02T01:18:58.168Z,99599.41
2023-02-02T01:21:26.276Z,99604.78
2023-02-02T01:23:54.370Z,99597.97
2023-02-02T01:26:22.519Z,99598.63
2023-02-02T01:28:50.715Z,99598.31
2023-02-02T01:31:21.420Z,99600.66
2023-02-02T01:33:50.606Z,99615.16
2023-02-02T01:36:20.721Z,99614.88
2023-02-02T01:38:49.739Z,99612.13
2023-02-02T01:41:20.076Z,99599.22
2023-02-02T01:43:57.265Z,99599.72
2023-02-02T01:46:28.936Z,99602.06
2023-02-02T01:49:04.063Z,99608.91
2023-02-02T01:51:37.863Z,99603.09
2023-02-02T01:54:09.793Z,99596.91
2023-02-02T01:56:43.471Z,99597.56
2023-02-02T01:59:13.820Z,99594.22
2023-02-02T02:01:45.033Z,99589.47
2023-02-02T02:04:13.281Z,99590.25
2023-02-02T02:06:42.618Z,99599.56
2023-02-02T02:09:10.761Z,99601.41
2023-02-02T02:11:38.855Z,99595.22
2023-02-02T02:14:27.839Z,99601.88
2023-02-02T02:17:07.659Z,99599.97
2023-02-02T02:20:40.981Z,99608.78
2023-02-02T02:24:03.452Z,99595.63
2023-02-02T02:26:58.794Z,99593.69
2023-02-02T02:29:55.016Z,99593.00
2023-02-02T02:32:42.740Z,99596.53
2023-02-02T02:35:21.551Z,99596.34
2023-02-02T02:37:55.839Z,99597.75
2023-02-02T02:40:31.442Z,99587.94
2023-02-02T02:43:02.900Z,99595.69
2023-02-02T02:45:31.866Z,99590.13
2023-02-02T02:48:01.475Z,99590.44
2023-02-02T02:50:29.801Z,99587.94
2023-02-02T02:53:03.433Z,99591.25
2023-02-02T02:55:44.387Z,99592.19
2023-02-02T02:58:16.651Z,99588.38
2023-02-02T03:00:53.030Z,99585.56
2023-02-02T03:03:35.464Z,99578.13
2023-02-02T03:06:09.491Z,99582.69
2023-02-02T03:08:41.363Z,99580.97
2023-02-02T03:11:12.751Z,99579.94
2023-02-02T03:13:42.354Z,99585.13
2023-02-02T03:16:11.329Z,99578.06
2023-02-02T03:18:41.229Z,99581.53
2023-02-02T03:21:09.297Z,99573.72
2023-02-02T03:23:37.336Z,99569.88
2023-02-02T03:26:05.880Z,99575.66
2023-02-02T03:28:34.036Z,99571.59
2023-02-02T03:31:03.429Z,99570.16
2023-02-02T03:33:33.420Z,99566.84
2023-02-02T03:36:02.926Z,99567.50
2023-02-02T03:38:31.072Z,99564.19
2023-02-02T03:40:59.124Z,99566.72
2023-02-02T03:43:28.069Z,99564.34
2023-02-02T03:46:00.224Z,99564.81
2023-02-02T03:48:28.632Z,99560.72
2023-02-02T03:50:56.761Z,99561.19
2023-02-02T03:53:26.331Z,99568.28
2023-02-02T03:55:55.705Z,99562.91
2023-02-02T03:58:23.808Z,99563.72
2023-02-02T04:00:52.090Z,99567.34
2023-02-02T04:03:20.082Z,99570.81
2023-02-02T04:05:51.024Z,99557.53
2023-02-02T04:08:19.288Z,99567.63
2023-02-02T04:10:48.707Z,99560.97
2023-02-02T04:13:16.850Z,99562.72
2023-02-02T04:15:45.149Z,99562.22
2023-02-02T04:18:13.156Z,99566.50
2023-02-02T04:20:41.376Z,99565.84
2023-02-02T04:23:09.482Z,99565.69
2023-02-02T04:25:37.500Z,99565.53
2023-02-02T04:28:07.015Z,99577.03
2023-02-02T04:30:35.564Z,99573.88
2023-02-02T04:33:03.669Z,99579.38
2023-02-02T04:35:31.752Z,99584.88
2023-02-02T04:37:59.814Z,99593.09
2023-02-02T04:40:27.982Z,99586.91
2023-02-02T04:42:56.043Z,99586.63
2023-02-02T04:45:25.969Z,99594.19
2023-02-02T04:47:54.438Z,99598.28
2023-02-02T04:50:22.500Z,99596.53
2023-02-02T04:52:50.578Z,99593.97
2023-02-02T04:55:18.643Z,99602.94
2023-02-02T04:57:46.747Z,99606.13
2023-02-02T05:00:15.955Z,99605.94
2023-02-02T05:02:45.613Z,99608.13
2023-02-02T05:05:15.439Z,99611.13
2023-02-02T05:07:43.498Z,99608.94
2023-02-02T05:10:12.856Z,99614.28
2023-02-02T05:12:41.543Z,99611.91
2023-02-02T05:15:28.000Z,99613.50
2023-02-02T05:17:57.460Z,99614.75
2023-02-02T05:20:25.614Z,99611.91
2023-02-02T05:22:53.703Z,99619.97
2023-02-02T05:25:21.790Z,99621.97
2023-02-02T05:27:49.844Z,99627.66
2023-02-02T05:30:18.888Z,99623.88
2023-02-02T05:32:46.949Z,99626.25
2023-02-02T05:35:16.544Z,99632.41
2023-02-02T05:37:44.951Z,99639.19
2023-02-02T05:40:13.425Z,99643.78
2023-02-02T05:42:41.678Z,99642.97
2023-02-02T05:45:10.794Z,99641.88
2023-02-02T05:47:38.848Z,99634.78
2023-02-02T05:50:07.766Z,99639.84
2023-02-02T05:52:38.885Z,99634.84
2023-02-02T05:55:07.932Z,99644.19
2023-02-02T05:57:40.418Z,99644.50
2023-02-02T06:00:21.342Z,99652.84
2023-02-02T06:02:49.330Z,99649.69
2023-02-02T06:05:17.560Z,99643.69
2023-02-02T06:07:47.059Z,99647.03
2023-02-02T06:10:15.422Z,99655.59
2023-02-02T06:12:44.242Z,99648.00
2023-02-02T06:15:12.921Z,99652.28
2023-02-02T06:17:41.088Z,99658.78
2023-02-02T06:20:10.127Z,99651.59
2023-02-02T06:22:38.261Z,99654.31
2023-02-02T06:25:08.883Z,99661.75
2023-02-02T06:27:36.995Z,99667.41
2023-02-02T06:30:05.462Z,99659.72
2023-02-02T06:32:34.011Z,99667.94
2023-02-02T06:35:02.232Z,99669.22
2023-02-02T06:37:30.909Z,99675.59
2023-02-02T06:39:59.247Z,99665.28
2023-02-02T06:42:28.870Z,99663.94
2023-02-02T06:44:56.996Z,99663.16
2023-02-02T06:47:26.891Z,99664.63
2023-02-02T06:49:55.262Z,99660.06
2023-02-02T06:52:35.412Z,99647.88
2023-02-02T06:55:03.475Z,99652.50
2023-02-02T06:57:33.088Z,99664.22
2023-02-02T07:00:02.323Z,99666.75
2023-02-02T07:02:30.979Z,99661.84
2023-02-02T07:04:59.063Z,99666.31
2023-02-02T07:07:32.955Z,99674.66
2023-02-02T07:10:07.323Z,99677.84
2023-02-02T07:12:36.984Z,99684.97
2023-02-02T07:15:09.462Z,99693.84
2023-02-02T07:17:39.728Z,99685.94
2023-02-02T07:20:08.935Z,99692.91
2023-02-02T07:22:39.491Z,99692.00
2023-02-02T07:25:08.986Z,99691.84
2023-02-02T07:27:38.911Z,99689.44
2023-02-02T07:30:08.133Z,99684.03
2023-02-02T07:32:36.261Z,99687.47
2023-02-02T07:35:04.657Z,99686.78
2023-02-02T07:37:34.252Z,99683.28
2023-02-02T07:40:02.685Z,99691.31
2023-02-02T07:42:31.476Z,99687.63
2023-02-02T07:45:26.973Z,99678.59
2023-02-02T07:47:57.462Z,99690.97
2023-02-02T07:50:29.256Z,99684.38
2023-02-02T07:52:57.661Z,99683.44
2023-02-02T07:55:27.378Z,99686.31
2023-02-02T07:58:01.896Z,99689.81
2023-02-02T08:00:33.703Z,99693.38
2023-02-02T08:03:01.769Z,99694.94
2023-02-02T08:05:32.352Z,99699.63
2023-02-02T08:08:00.455Z,99691.72
2023-02-02T08:10:31.667Z,99692.25
2023-02-02T08:12:59.817Z,99696.53
2023-02-02T08:15:28.050Z,99688.72
2023-02-02T08:17:59.324Z,99697.88
2023-02-02T08:20:27.361Z,99697.59
2023-02-02T08:22:55.508Z,99691.84
2023-02-02T08:25:25.568Z,99686.19
2023-02-02T08:27:55.123Z,99683.91
2023-02-02T08:30:23.133Z,99688.78
2023-02-02T08:32:51.202Z,99684.94
2023-02-02T08:35:21.998Z,99678.41
2023-02-02T08:37:50.224Z,99674.41
2023-02-02T08:40:19.236Z,99676.03
2023-02-02T08:42:51.170Z,99676.56
2023-02-02T08:46:01.758Z,99675.03
2023-02-02T08:48:11.936Z,99683.00
2023-02-02T08:50:42.160Z,99674.00
2023-02-02T08:53:10.614Z,99674.41
2023-02-02T08:55:38.648Z,99678.75
2023-02-02T08:58:09.090Z,99672.56
2023-02-02T09:00:41.964Z,99671.81
2023-02-02T09:03:27.822Z,99671.13
2023-02-02T09:05:57.361Z,99660.06
2023-02-02T09:08:25.544Z,99655.59
2023-02-02T09:10:53.904Z,99648.16
2023-02-02T09:13:23.345Z,99642.28
2023-02-02T09:15:51.505Z,99644.09
2023-02-02T09:18:19.580Z,99632.81
2023-02-02T09:20:47.594Z,99634.47
2023-02-02T09:23:17.086Z,99628.63
2023-02-02T09:25:45.114Z,99622.97
2023-02-02T09:28:13.201Z,99615.84
2023-02-02T09:30:41.258Z,99618.66
2023-02-02T09:33:09.274Z,99606.13
2023-02-02T09:35:40.519Z,99601.91
2023-02-02T09:38:08.665Z,99588.75
2023-02-02T09:40:38.281Z,99602.41
2023-02-02T09:43:18.767Z,99598.38
2023-02-02T09:45:56.265Z,99600.00
2023-02-02T09:48:29.141Z,99596.38
2023-02-02T09:51:01.108Z,99596.25
2023-02-02T09:53:54.756Z,99595.09
2023-02-02T09:56:28.414Z,99596.25
2023-02-02T09:59:13.721Z,99587.09
2023-02-02T10:01:51.348Z,99583.72
2023-02-02T10:04:23.465Z,99577.66
2023-02-02T10:06:54.389Z,99564.94
2023-02-02T10:09:34.964Z,99554.09
2023-02-02T10:12:18.864Z,99551.19
2023-02-02T10:14:54.563Z,99533.19
2023-02-02T10:17:37.044Z,99536.56
2023-02-02T10:20:17.109Z,99528.81
2023-02-02T10:22:48.236Z,99534.28
2023-02-02T10:25:18.205Z,99521.28
2023-02-02T10:27:55.952Z,99506.75
2023-02-02T10:30:37.244Z,99510.78
2023-02-02T10:33:12.484Z,99516.09
2023-02-02T10:35:46.862Z,99506.03
2023-02-02T10:38:37.955Z,99504.72
2023-02-02T10:41:18.690Z,99504.50
2023-02-02T10:44:14.564Z,99501.88
2023-02-02T10:46:48.321Z,99494.31
2023-02-02T10:49:24.167Z,99494.69
2023-02-02T10:51:59.281Z,99488.53
2023-02-02T10:54:55.420Z,99482.47
2023-02-02T10:57:35.431Z,99466.31
2023-02-02T11:00:16.516Z,99464.75
2023-02-02T11:02:45.107Z,99465.84
2023-02-02T11:05:36.052Z,99470.72
2023-02-02T11:08:04.145Z,99451.38
2023-02-02T11:10:34.106Z,99457.69
2023-02-02T11:13:03.910Z,99459.28
2023-02-02T11:15:33.408Z,99444.25
2023-02-02T11:18:16.041Z,99450.56
2023-02-02T11:20:46.685Z,99437.34
2023-02-02T11:23:20.527Z,99417.50
2023-02-02T11:26:00.122Z,99407.00
2023-02-02T11:28:32.347Z,99400.84
2023-02-02T11:31:02.053Z,99396.13
2023-02-02T11:33:33.680Z,99384.84
2023-02-02T11:36:03.757Z,99378.84
2023-02-02T11:38:32.358Z,99369.19
2023-02-02T11:41:04.016Z,99366.59
2023-02-02T11:43:41.038Z,99373.91
2023-02-02T11:46:20.165Z,99362.91
2023-02-02T11:48:54.587Z,99349.75
2023-02-02T11:51:26.023Z,99344.03
2023-02-02T11:54:04.273Z,99348.53
2023-02-02T11:56:33.028Z,99346.06
2023-02-02T11:59:03.966Z,99341.81
2023-02-02T12:01:35.719Z,99342.88
2023-02-02T12:04:05.276Z,99346.06
2023-02-02T12:06:38.369Z,99339.47
2023-02-02T12:09:14.221Z,99336.25
2023-02-02T12:11:58.172Z,99343.09
2023-02-02T12:14:36.050Z,99338.72
2023-02-02T12:17:22.090Z,99341.47
2023-02-02T12:20:06.155Z,99336.03
2023-02-02T12:22:51.408Z,99334.94
2023-02-02T12:25:39.053Z,99321.22
2023-02-02T12:28:20.153Z,99322.81
2023-02-02T12:30:55.645Z,99326.72
2023-02-02T12:33:36.122Z,99337.69
2023-02-02T12:36:19.836Z,99343.69
2023-02-02T12:39:06.686Z,99341.91
2023-02-02T12:42:01.349Z,99335.69
2023-02-02T12:44:41.961Z,99333.22
2023-02-02T12:47:19.691Z,99329.28
2023-02-02T12:50:05.924Z,99329.09
2023-02-02T12:52:49.210Z,99335.91
2023-02-02T12:55:25.314Z,99319.97
2023-02-02T12:58:07.577Z,99321.81
2023-02-02T13:00:53.390Z,99323.69
2023-02-02T13:03:37.928Z,99319.84
2023-02-02T13:06:45.191Z,99306.97
2023-02-02T13:09:19.967Z,99313.53
2023-02-02T13:11:51.055Z,99301.44
2023-02-02T13:14:23.381Z,99297.00
2023-02-02T13:16:55.382Z,99304.22
2023-02-02T13:19:30.065Z,99290.22
2023-02-02T13:22:02.138Z,99293.75
2023-02-02T13:24:33.175Z,99288.63
2023-02-02T13:27:06.717Z,99282.03
2023-02-02T13:29:47.961Z,99279.34
2023-02-02T13:32:21.957Z,99279.34
2023-02-02T13:34:55.154Z,99284.97
2023-02-02T13:37:37.088Z,99269.03
2023-02-02T13:40:17.309Z,99283.91
2023-02-02T13:42:50.384Z,99286.00
2023-02-02T13:45:40.717Z,99278.75
2023-02-02T13:48:21.765Z,99275.25
2023-02-02T13:51:15.867Z,99267.88
2023-02-02T13:54:04.775Z,99272.63
2023-02-02T13:56:49.387Z,99275.81
2023-02-02T13:59:46.918Z,99273.38
2023-02-02T14:02:23.847Z,99279.94
2023-02-02T14:05:05.795Z,99282.22
2023-02-02T14:07:42.779Z,99319.97
2023-02-02T14:10:26.641Z,99322.00
2023-02-02T14:12:57.299Z,99324.97
2023-02-02T14:15:43.374Z,99320.97
2023-02-02T14:18:11.673Z,99307.22
2023-02-02T14:20:47.970Z,99299.56
2023-02-02T14:23:58.560Z,99302.34
2023-02-02T14:26:50.055Z,99280.03
2023-02-02T14:29:40.827Z,99298.97
2023-02-02T14:32:32.521Z,99307.75
2023-02-02T14:35:02.321Z,99308.63
2023-02-02T14:37:44.073Z,99310.97
2023-02-02T14:40:36.326Z,99316.03
2023-02-02T14:43:51.761Z,99335.84
2023-02-02T14:46:39.445Z,99338.28
2023-02-02T14:49:20.602Z,99340.94
2023-02-02T14:51:54.014Z,99323.38
2023-02-02T14:54:50.139Z,99329.50
2023-02-02T14:57:26.529Z,99338.25
2023-02-02T14:59:58.734Z,99329.34
2023-02-02T15:02:34.966Z,99324.63
2023-02-02T15:05:46.440Z,99332.31
2023-02-02T15:08:23.625Z,99326.38
2023-02-02T15:11:23.732Z,99326.56
2023-02-02T15:13:58.536Z,99320.13
2023-02-02T15:16:31.895Z,99326.81
2023-02-02T15:19:08.537Z,99325.38
2023-02-02T15:21:41.864Z,99332.44
2023-02-02T15:24:21.891Z,99335.63
2023-02-02T15:26:51.503Z,99348.13
2023-02-02T15:29:31.006Z,99353.53
2023-02-02T15:32:01.706Z,99351.50
2023-02-02T15:34:40.109Z,99364.41
2023-02-02T15:37:13.899Z,99367.97
2023-02-02T15:39:44.817Z,99366.22
2023-02-02T15:42:36.431Z,99369.16
2023-02-02T15:45:05.367Z,99383.44
2023-02-02T15:47:37.585Z,99379.28
2023-02-02T15:50:18.677Z,99387.84
2023-02-02T15:52:50.391Z,99398.19
2023-02-02T15:55:24.834Z,99408.19
2023-02-02T15:57:55.308Z,99419.53
2023-02-02T16:00:28.625Z,99430.25
2023-02-02T16:03:04.216Z,99422.56
2023-02-02T16:05:48.919Z,99427.56
2023-02-02T16:08:21.276Z,99429.25
2023-02-02T16:10:50.355Z,99434.13
2023-02-02T16:13:29.903Z,99453.06
2023-02-02T16:16:00.281Z,99469.59
2023-02-02T16:18:30.554Z,99506.38
2023-02-02T16:21:02.946Z,99540.84
2023-02-02T16:23:35.776Z,99554.41
2023-02-02T16:26:06.648Z,99587.16
2023-02-02T16:28:35.758Z,99584.78
2023-02-02T16:31:05.718Z,99610.06
2023-02-02T16:33:42.398Z,99632.91
2023-02-02T16:36:25.670Z,99602.66
2023-02-02T16:38:56.140Z,99611.56
2023-02-02T16:41:30.375Z,99638.69
2023-02-02T16:44:31.891Z,99651.75
2023-02-02T16:47:01.993Z,99668.50
2023-02-02T16:49:33.648Z,99678.13
2023-02-02T16:52:14.588Z,99685.19
2023-02-02T16:54:50.799Z,99669.09
2023-02-02T16:57:22.746Z,99659.50
2023-02-02T16:59:53.643Z,99683.09
2023-02-02T17:02:29.121Z,99687.69
2023-02-02T17:05:04.728Z,99705.09
2023-02-02T17:07:35.106Z,99711.25
2023-02-02T17:10:24.614Z,99728.81
2023-02-02T17:12:52.973Z,99717.72
2023-02-02T17:15:35.760Z,99742.97
2023-02-02T17:18:05.237Z,99739.78
2023-02-02T17:20:35.123Z,99747.00
2023-02-02T17:23:07.103Z,99750.19
2023-02-02T17:25:38.339Z,99751.09
2023-02-02T17:28:11.742Z,99757.59
2023-02-02T17:30:42.063Z,99763.59
2023-02-02T17:33:15.061Z,99760.09
2023-02-02T17:35:54.108Z,99752.19
2023-02-02T17:38:24.060Z,99744.41
2023-02-02T17:40:53.015Z,99742.84
2023-02-02T17:43:21.404Z,99736.34
2023-02-02T17:45:50.580Z,99738.91
2023-02-02T17:48:18.708Z,99741.88
2023-02-02T17:50:48.595Z,99735.13
2023-02-02T17:53:19.288Z,99744.56
2023-02-02T17:55:49.848Z,99730.34
2023-02-02T17:58:18.807Z,99733.66
2023-02-02T18:00:48.715Z,99709.16
2023-02-02T18:03:21.473Z,99701.75
2023-02-02T18:05:51.195Z,99708.94
2023-02-02T18:08:19.675Z,99701.09
2023-02-02T18:10:47.781Z,99710.88
2023-02-02T18:13:19.199Z,99696.38
2023-02-02T18:15:47.801Z,99718.69
2023-02-02T18:18:16.306Z,99711.75
2023-02-02T18:20:44.853Z,99719.63
2023-02-02T18:23:17.148Z,99703.16
2023-02-02T18:25:45.532Z,99705.66
2023-02-02T18:28:17.570Z,99726.59
2023-02-02T18:30:47.048Z,99717.16
2023-02-02T18:33:20.476Z,99697.53
2023-02-02T18:35:49.479Z,99694.25
2023-02-02T18:38:19.759Z,99695.53
2023-02-02T18:40:57.333Z,99691.75
2023-02-02T18:43:25.434Z,99694.16
2023-02-02T18:45:59.923Z,99696.09
2023-02-02T18:48:28.269Z,99702.25
2023-02-02T18:50:56.276Z,99703.03
2023-02-02T18:53:26.514Z,99706.84
2023-02-02T18:55:54.748Z,99725.16
2023-02-02T18:58:22.902Z,99720.28
2023-02-02T19:00:51.455Z,99727.22
2023-02-02T19:03:19.564Z,99729.00
2023-02-02T19:06:04.868Z,99722.19
2023-02-02T19:08:34.412Z,99723.78
2023-02-02T19:11:14.173Z,99721.88
2023-02-02T19:13:42.406Z,99721.59
2023-02-02T19:16:18.605Z,99723.28
2023-02-02T19:18:47.262Z,99732.94
2023-02-02T19:21:16.007Z,99743.69
2023-02-02T19:23:46.451Z,99758.56
2023-02-02T19:26:24.709Z,99751.91
2023-02-02T19:28:54.036Z,99750.31
2023-02-02T19:31:57.618Z,99749.53
2023-02-02T19:34:25.986Z,99743.03
2023-02-02T19:36:54.126Z,99752.22
2023-02-02T19:39:30.950Z,99743.66
2023-02-02T19:42:01.253Z,99748.25
2023-02-02T19:44:34.209Z,99739.84
2023-02-02T19:47:02.904Z,99747.28
2023-02-02T19:49:33.794Z,99737.31
2023-02-02T19:52:04.092Z,99752.66
2023-02-02T19:54:37.302Z,99745.25
2023-02-02T19:57:16.628Z,99755.38
2023-02-02T19:59:48.588Z,99759.34
2023-02-02T20:02:49.779Z,99753.97
2023-02-02T20:05:20.833Z,99757.13
2023-02-02T20:11:55.455Z,99763.13
2023-02-02T20:18:00.936Z,99757.41
2023-02-02T20:21:00.498Z,99759.44
2023-02-02T20:27:00.416Z,99781.03
2023-02-02T20:30:18.627Z,99780.66
2023-02-02T20:33:34.125Z,99784.59
2023-02-02T20:36:39.102Z,99787.88
2023-02-02T20:43:33.666Z,99783.75
2023-02-02T20:47:03.357Z,99779.44
2023-02-02T20:53:48.812Z,99793.66
2023-02-02T20:56:52.961Z,99804.84
2023-02-02T20:59:31.343Z,99811.28
2023-02-02T21:02:21.101Z,99799.25
2023-02-02T21:05:15.635Z,99785.00
2023-02-02T21:08:35.526Z,99793.00
2023-02-02T21:11:47.989Z,99782.69
2023-02-02T21:14:59.794Z,99785.66
2023-02-02T21:21:27.217Z,99768.69
2023-02-02T21:24:37.543Z,99780.09
2023-02-02T21:27:48.144Z,99770.16
2023-02-02T21:30:53.683Z,99771.38
2023-02-02T21:33:24.465Z,99767.72
2023-02-02T21:36:39.184Z,99773.69
2023-02-02T21:43:04.953Z,99776.97
2023-02-02T21:46:17.679Z,99777.78
2023-02-02T21:48:52.218Z,99773.19
2023-02-02T21:51:35.906Z,99774.16
2023-02-02T21:54:30.014Z,99769.31
2023-02-02T21:57:23.407Z,99774.16
2023-02-02T22:00:25.352Z,99774.97
2023-02-02T22:03:00.839Z,99782.03
2023-02-02T22:05:59.250Z,99783.53
2023-02-02T22:08:53.382Z,99778.19
2023-02-02T22:14:38.018Z,99767.38
2023-02-02T22:17:25.033Z,99765.97
2023-02-02T22:20:07.368Z,99766.47
2023-02-02T22:26:16.817Z,99756.22
2023-02-02T22:28:53.881Z,99765.88
2023-02-02T22:31:34.377Z,99755.50
2023-02-02T22:34:03.894Z,99740.38
2023-02-02T22:36:34.144Z,99751.31
2023-02-02T22:39:15.927Z,99750.69
2023-02-02T22:41:48.680Z,99744.41
2023-02-02T22:47:31.930Z,99734.47
2023-02-02T22:50:14.331Z,99750.91
2023-02-02T22:52:48.956Z,99746.50
2023-02-02T22:55:34.052Z,99726.59
2023-02-02T23:01:04.786Z,99739.97
2023-02-02T23:03:35.584Z,99728.97
2023-02-02T23:06:13.321Z,99737.22
2023-02-02T23:11:42.899Z,99753.69
2023-02-02T23:14:33.270Z,99752.13
2023-02-02T23:17:16.153Z,99757.50
2023-02-02T23:20:05.043Z,99747.84
2023-02-02T23:23:14.581Z,99742.47
2023-02-02T23:25:57.434Z,99727.63
2023-02-02T23:28:34.673Z,99736.97
2023-02-02T23:31:25.947Z,99735.38
2023-02-02T23:33:59.189Z,99737.94
2023-02-02T23:36:35.647Z,99735.72
2023-02-02T23:39:05.727Z,99741.09
2023-02-02T23:41:39.730Z,99756.44
2023-02-02T23:44:12.510Z,99742.22
2023-02-02T23:46:42.827Z,99738.75
2023-02-02T23:49:16.833Z,99739.34
2023-02-02T23:51:55.443Z,99740.75
2023-02-02T23:57:43.112Z,99745.75
